sensor_id;sensor_type;location;lat;lon;timestamp;pressure;altitude;pressure_sealevel;temperature;humidity
7200;BME280;3641;49.082;8.200;2023-05-21T00:00:45;99982.59;;;15.80;76.42
7200;BME280;3641;49.082;8.200;2023-05-21T00:03:12;99981.22;;;15.89;74.10
7200;BME280;3641;49.082;8.200;2023-05-21T00:05:40;99981.00;;;15.66;78.22
7200;BME280;3641;49.082;8.200;2023-05-21T00:08:07;99988.59;;;15.89;74.04
7200;BME280;3641;49.082;8.200;2023-05-21T00:10:34;99982.13;;;15.83;74.77
7200;BME280;3641;49.082;8.200;2023-05-21T00:13:01;99981.91;;;15.85;76.21
7200;BME280;3641;49.082;8.200;2023-05-21T00:15:28;99984.03;;;16.01;71.05
7200;BME280;3641;49.082;8.200;2023-05-21T00:17:54;99984.28;;;15.74;77.22
7200;BME280;3641;49.082;8.200;2023-05-21T00:20:20;99975.13;;;15.62;78.50
7200;BME280;3641;49.082;8.200;2023-05-21T00:22:47;99977.25;;;15.60;78.88
7200;BME280;3641;49.082;8.200;2023-05-21T00:25:13;99977.47;;;15.58;78.59
7200;BME280;3641;49.082;8.200;2023-05-21T00:27:41;99974.84;;;15.89;73.82
7200;BME280;3641;49.082;8.200;2023-05-21T00:30:08;99974.03;;;15.63;78.34
7200;BME280;3641;49.082;8.200;2023-05-21T00:32:35;99969.78;;;15.67;77.68
7200;BME280;3641;49.082;8.200;2023-05-21T00:35:02;99961.09;;;15.89;72.48
7200;BME280;3641;49.082;8.200;2023-05-21T00:37:28;99950.53;;;15.67;77.58
7200;BME280;3641;49.082;8.200;2023-05-21T00:39:58;99956.22;;;15.47;79.30
7200;BME280;3641;49.082;8.200;2023-05-21T00:42:25;99956.09;;;15.60;78.14
7200;BME280;3641;49.082;8.200;2023-05-21T00:44:53;99949.84;;;15.72;76.58
7200;BME280;3641;49.082;8.200;2023-05-21T00:47:19;99945.16;;;15.72;74.09
7200;BME280;3641;49.082;8.200;2023-05-21T00:49:46;99946.94;;;15.85;76.05
7200;BME280;3641;49.082;8.200;2023-05-21T00:52:15;99941.94;;;15.57;77.15
7200;BME280;3641;49.082;8.200;2023-05-21T00:54:45;99942.84;;;15.51;79.39
7200;BME280;3641;49.082;8.200;2023-05-21T00:57:12;99941.94;;;15.57;78.10
7200;BME280;3641;49.082;8.200;2023-05-21T00:59:39;99933.06;;;15.55;79.08
7200;BME280;3641;49.082;8.200;2023-05-21T01:02:07;99938.28;;;15.44;79.84
7200;BME280;3641;49.082;8.200;2023-05-21T01:04:34;99936.50;;;15.50;79.83
7200;BME280;3641;49.082;8.200;2023-05-21T01:07:01;99933.06;;;15.55;79.33
7200;BME280;3641;49.082;8.200;2023-05-21T01:09:27;99933.38;;;15.65;77.71
7200;BME280;3641;49.082;8.200;2023-05-21T01:11:54;99927.88;;;15.47;79.88
7200;BME280;3641;49.082;8.200;2023-05-21T01:14:21;99932.78;;;15.44;79.38
7200;BME280;3641;49.082;8.200;2023-05-21T01:16:49;99923.28;;;15.40;79.87
7200;BME280;3641;49.082;8.200;2023-05-21T01:19:20;99921.66;;;15.33;80.58
7200;BME280;3641;49.082;8.200;2023-05-21T01:21:49;99925.88;;;15.35;80.22
7200;BME280;3641;49.082;8.200;2023-05-21T01:24:19;99920.09;;;15.43;79.59
7200;BME280;3641;49.082;8.200;2023-05-21T01:26:45;99921.00;;;15.56;76.39
7200;BME280;3641;49.082;8.200;2023-05-21T01:29:12;99912.50;;;15.39;80.29
7200;BME280;3641;49.082;8.200;2023-05-21T01:31:49;99914.34;;;15.45;79.92
7200;BME280;3641;49.082;8.200;2023-05-21T01:34:21;99918.47;;;15.36;80.17
7200;BME280;3641;49.082;8.200;2023-05-21T01:36:56;99920.53;;;15.40;80.07
7200;BME280;3641;49.082;8.200;2023-05-21T01:39:29;99909.16;;;15.37;80.27
7200;BME280;3641;49.082;8.200;2023-05-21T01:41:59;99908.16;;;15.31;81.06
7200;BME280;3641;49.082;8.200;2023-05-21T01:44:29;99911.38;;;15.47;79.02
7200;BME280;3641;49.082;8.200;2023-05-21T01:46:57;99907.69;;;15.34;80.72
7200;BME280;3641;49.082;8.200;2023-05-21T01:49:24;99900.69;;;15.38;79.88
7200;BME280;3641;49.082;8.200;2023-05-21T01:51:51;99909.69;;;15.46;79.58
7200;BME280;3641;49.082;8.200;2023-05-21T01:54:17;99907.38;;;15.42;79.98
7200;BME280;3641;49.082;8.200;2023-05-21T01:56:45;99909.91;;;15.25;81.34
7200;BME280;3641;49.082;8.200;2023-05-21T01:59:12;99906.09;;;15.45;76.02
7200;BME280;3641;49.082;8.200;2023-05-21T02:01:38;99901.88;;;15.42;79.87
7200;BME280;3641;49.082;8.200;2023-05-21T02:04:05;99897.31;;;15.55;76.46
7200;BME280;3641;49.082;8.200;2023-05-21T02:06:31;99897.22;;;15.24;81.31
7200;BME280;3641;49.082;8.200;2023-05-21T02:09:00;99895.31;;;15.43;77.11
7200;BME280;3641;49.082;8.200;2023-05-21T02:11:26;99897.69;;;15.21;81.70
7200;BME280;3641;49.082;8.200;2023-05-21T02:13:55;99891.94;;;15.23;81.23
7200;BME280;3641;49.082;8.200;2023-05-21T02:16:21;99899.22;;;15.36;78.63
7200;BME280;3641;49.082;8.200;2023-05-21T02:18:48;99896.69;;;15.34;80.22
7200;BME280;3641;49.082;8.200;2023-05-21T02:21:16;99897.91;;;15.20;81.66
7200;BME280;3641;49.082;8.200;2023-05-21T02:23:42;99895.75;;;15.22;81.58
7200;BME280;3641;49.082;8.200;2023-05-21T02:26:09;99890.13;;;15.35;79.33
7200;BME280;3641;49.082;8.200;2023-05-21T02:28:35;99889.19;;;15.23;81.57
7200;BME280;3641;49.082;8.200;2023-05-21T02:31:03;99890.19;;;15.10;82.04
7200;BME280;3641;49.082;8.200;2023-05-21T02:33:30;99883.31;;;15.38;77.83
7200;BME280;3641;49.082;8.200;2023-05-21T02:35:56;99885.84;;;15.21;81.74
7200;BME280;3641;49.082;8.200;2023-05-21T02:38:23;99872.94;;;15.21;81.21
7200;BME280;3641;49.082;8.200;2023-05-21T02:40:50;99879.72;;;15.19;81.46
7200;BME280;3641;49.082;8.200;2023-05-21T02:43:17;99877.22;;;15.17;81.21
7200;BME280;3641;49.082;8.200;2023-05-21T02:45:43;99883.41;;;15.31;80.03
7200;BME280;3641;49.082;8.200;2023-05-21T02:48:11;99880.22;;;15.09;81.58
7200;BME280;3641;49.082;8.200;2023-05-21T02:50:37;99880.47;;;15.07;82.12
7200;BME280;3641;49.082;8.200;2023-05-21T02:53:04;99878.94;;;15.12;82.41
7200;BME280;3641;49.082;8.200;2023-05-21T02:55:31;99875.81;;;15.08;82.05
7200;BME280;3641;49.082;8.200;2023-05-21T02:57:57;99873.19;;;14.95;83.31
7200;BME280;3641;49.082;8.200;2023-05-21T03:00:24;99869.38;;;14.96;82.82
7200;BME280;3641;49.082;8.200;2023-05-21T03:02:50;99883.44;;;15.06;81.32
7200;BME280;3641;49.082;8.200;2023-05-21T03:05:18;99874.44;;;14.99;82.56
7200;BME280;3641;49.082;8.200;2023-05-21T03:07:45;99870.66;;;14.93;83.06
7200;BME280;3641;49.082;8.200;2023-05-21T03:10:11;99873.19;;;14.95;82.30
7200;BME280;3641;49.082;8.200;2023-05-21T03:12:37;99874.50;;;15.11;80.06
7200;BME280;3641;49.082;8.200;2023-05-21T03:15:05;99870.41;;;15.01;81.96
7200;BME280;3641;49.082;8.200;2023-05-21T03:17:31;99866.41;;;14.97;80.74
7200;BME280;3641;49.082;8.200;2023-05-21T03:19:58;99862.19;;;14.95;82.62
7200;BME280;3641;49.082;8.200;2023-05-21T03:22:25;99862.31;;;14.81;83.74
7200;BME280;3641;49.082;8.200;2023-05-21T03:24:52;99868.19;;;14.85;83.10
7200;BME280;3641;49.082;8.200;2023-05-21T03:27:18;99865.97;;;14.75;84.29
7200;BME280;3641;49.082;8.200;2023-05-21T03:29:45;99870.34;;;14.83;83.69
7200;BME280;3641;49.082;8.200;2023-05-21T03:32:12;99865.72;;;15.02;80.79
7200;BME280;3641;49.082;8.200;2023-05-21T03:34:38;99872.88;;;14.84;83.46
7200;BME280;3641;49.082;8.200;2023-05-21T03:37:05;99874.16;;;14.82;83.66
7200;BME280;3641;49.082;8.200;2023-05-21T03:39:33;99869.81;;;14.93;82.84
7200;BME280;3641;49.082;8.200;2023-05-21T03:41:59;99875.25;;;14.74;84.05
7200;BME280;3641;49.082;8.200;2023-05-21T03:44:26;99873.31;;;14.81;83.20
7200;BME280;3641;49.082;8.200;2023-05-21T03:46:52;99879.31;;;14.71;84.39
7200;BME280;3641;49.082;8.200;2023-05-21T03:49:19;99882.50;;;14.68;84.46
7200;BME280;3641;49.082;8.200;2023-05-21T03:51:45;99879.31;;;14.71;83.89
7200;BME280;3641;49.082;8.200;2023-05-21T03:54:12;99887.00;;;14.88;82.73
7200;BME280;3641;49.082;8.200;2023-05-21T03:56:39;99883.06;;;14.77;84.09
7200;BME280;3641;49.082;8.200;2023-05-21T03:59:06;99886.91;;;14.76;83.75
7200;BME280;3641;49.082;8.200;2023-05-21T04:01:32;99890.91;;;14.74;84.02
7200;BME280;3641;49.082;8.200;2023-05-21T04:03:59;99893.16;;;14.83;83.47
7200;BME280;3641;49.082;8.200;2023-05-21T04:06:25;99897.88;;;14.76;84.20
7200;BME280;3641;49.082;8.200;2023-05-21T04:08:52;99898.28;;;14.80;83.42
7200;BME280;3641;49.082;8.200;2023-05-21T04:11:18;99902.13;;;14.72;83.38
7200;BME280;3641;49.082;8.200;2023-05-21T04:13:46;99895.75;;;14.78;82.70
7200;BME280;3641;49.082;8.200;2023-05-21T04:16:13;99898.94;;;14.75;84.23
7200;BME280;3641;49.082;8.200;2023-05-21T04:18:43;99908.25;;;14.99;80.48
7200;BME280;3641;49.082;8.200;2023-05-21T04:21:10;99905.00;;;14.84;82.49
7200;BME280;3641;49.082;8.200;2023-05-21T04:23:36;99910.38;;;14.72;84.76
7200;BME280;3641;49.082;8.200;2023-05-21T04:26:03;99917.66;;;14.85;79.32
7200;BME280;3641;49.082;8.200;2023-05-21T04:28:29;99910.00;;;14.68;84.94
7200;BME280;3641;49.082;8.200;2023-05-21T04:30:58;99908.59;;;14.84;83.39
7200;BME280;3641;49.082;8.200;2023-05-21T04:33:25;99909.88;;;14.82;81.74
7200;BME280;3641;49.082;8.200;2023-05-21T04:35:54;99908.00;;;14.76;84.48
7200;BME280;3641;49.082;8.200;2023-05-21T04:38:20;99910.81;;;14.69;83.84
7200;BME280;3641;49.082;8.200;2023-05-21T04:40:48;99914.16;;;14.78;84.36
7200;BME280;3641;49.082;8.200;2023-05-21T04:43:15;99919.44;;;14.73;84.62
7200;BME280;3641;49.082;8.200;2023-05-21T04:45:42;99919.00;;;14.76;84.70
7200;BME280;3641;49.082;8.200;2023-05-21T04:48:11;99919.19;;;14.81;84.42
7200;BME280;3641;49.082;8.200;2023-05-21T04:50:39;99913.50;;;14.76;84.64
7200;BME280;3641;49.082;8.200;2023-05-21T04:53:06;99916.25;;;14.76;84.91
7200;BME280;3641;49.082;8.200;2023-05-21T04:55:32;99915.31;;;14.88;80.96
7200;BME280;3641;49.082;8.200;2023-05-21T04:58:03;99918.06;;;14.88;83.19
7200;BME280;3641;49.082;8.200;2023-05-21T05:00:30;99922.72;;;14.88;84.47
7200;BME280;3641;49.082;8.200;2023-05-21T05:02:56;99922.94;;;14.86;84.64
7200;BME280;3641;49.082;8.200;2023-05-21T05:05:24;99925.41;;;14.95;83.31
7200;BME280;3641;49.082;8.200;2023-05-21T05:07:50;99921.53;;;15.02;83.51
7200;BME280;3641;49.082;8.200;2023-05-21T05:10:17;99924.13;;;14.97;84.21
7200;BME280;3641;49.082;8.200;2023-05-21T05:12:43;99924.72;;;14.99;83.86
7200;BME280;3641;49.082;8.200;2023-05-21T05:15:10;99932.88;;;15.13;82.70
7200;BME280;3641;49.082;8.200;2023-05-21T05:17:36;99929.09;;;15.32;81.24
7200;BME280;3641;49.082;8.200;2023-05-21T05:20:05;99926.00;;;15.22;83.49
7200;BME280;3641;49.082;8.200;2023-05-21T05:22:33;99926.88;;;15.41;77.75
7200;BME280;3641;49.082;8.200;2023-05-21T05:24:59;99922.75;;;15.32;82.72
7200;BME280;3641;49.082;8.200;2023-05-21T05:27:26;99923.88;;;15.24;83.21
7200;BME280;3641;49.082;8.200;2023-05-21T05:29:52;99921.13;;;15.42;78.88
7200;BME280;3641;49.082;8.200;2023-05-21T05:32:19;99924.34;;;15.39;81.11
7200;BME280;3641;49.082;8.200;2023-05-21T05:34:45;99916.88;;;15.47;82.32
7200;BME280;3641;49.082;8.200;2023-05-21T05:37:12;99921.78;;;15.44;82.49
7200;BME280;3641;49.082;8.200;2023-05-21T05:39:39;99919.78;;;15.52;82.54
7200;BME280;3641;49.082;8.200;2023-05-21T05:42:06;99923.78;;;15.56;81.78
7200;BME280;3641;49.082;8.200;2023-05-21T05:44:32;99913.13;;;15.59;82.48
7200;BME280;3641;49.082;8.200;2023-05-21T05:46:59;99912.59;;;15.69;81.31
7200;BME280;3641;49.082;8.200;2023-05-21T05:49:25;99919.78;;;15.70;81.27
7200;BME280;3641;49.082;8.200;2023-05-21T05:51:52;99915.59;;;15.86;80.49
7200;BME280;3641;49.082;8.200;2023-05-21T05:54:18;99918.50;;;15.91;80.17
7200;BME280;3641;49.082;8.200;2023-05-21T05:56:46;99920.19;;;15.92;80.73
7200;BME280;3641;49.082;8.200;2023-05-21T05:59:12;99918.03;;;15.94;80.53
7200;BME280;3641;49.082;8.200;2023-05-21T06:01:39;99909.94;;;16.00;80.22
7200;BME280;3641;49.082;8.200;2023-05-21T06:04:06;99914.97;;;16.03;80.09
7200;BME280;3641;49.082;8.200;2023-05-21T06:06:33;99915.47;;;16.11;79.47
7200;BME280;3641;49.082;8.200;2023-05-21T06:09:00;99913.25;;;16.20;79.23
7200;BME280;3641;49.082;8.200;2023-05-21T06:11:27;99909.66;;;16.20;79.62
7200;BME280;3641;49.082;8.200;2023-05-21T06:13:55;99909.44;;;16.21;79.49
7200;BME280;3641;49.082;8.200;2023-05-21T06:16:24;99923.56;;;16.25;79.17
7200;BME280;3641;49.082;8.200;2023-05-21T06:18:51;99918.84;;;16.44;78.31
7200;BME280;3641;49.082;8.200;2023-05-21T06:21:17;99921.22;;;16.70;77.35
7200;BME280;3641;49.082;8.200;2023-05-21T06:23:44;99918.41;;;17.13;74.13
7200;BME280;3641;49.082;8.200;2023-05-21T06:26:10;99919.47;;;17.00;75.65
7200;BME280;3641;49.082;8.200;2023-05-21T06:28:37;99917.63;;;16.82;76.56
7200;BME280;3641;49.082;8.200;2023-05-21T06:31:05;99923.16;;;16.82;75.88
7200;BME280;3641;49.082;8.200;2023-05-21T06:33:31;99918.44;;;16.70;77.73
7200;BME280;3641;49.082;8.200;2023-05-21T06:35:58;99920.69;;;16.62;78.23
7200;BME280;3641;49.082;8.200;2023-05-21T06:38:24;99931.19;;;16.83;76.06
7200;BME280;3641;49.082;8.200;2023-05-21T06:40:51;99927.97;;;16.86;76.76
7200;BME280;3641;49.082;8.200;2023-05-21T06:43:17;99924.38;;;16.86;77.64
7200;BME280;3641;49.082;8.200;2023-05-21T06:45:45;99920.53;;;16.99;75.75
7200;BME280;3641;49.082;8.200;2023-05-21T06:48:12;99923.31;;;16.99;75.86
7200;BME280;3641;49.082;8.200;2023-05-21T06:50:41;99928.69;;;16.94;76.82
7200;BME280;3641;49.082;8.200;2023-05-21T06:53:07;99926.91;;;16.99;75.87
7200;BME280;3641;49.082;8.200;2023-05-21T06:55:34;99924.00;;;16.94;76.90
7200;BME280;3641;49.082;8.200;2023-05-21T06:58:01;99932.44;;;16.99;76.84
7200;BME280;3641;49.082;8.200;2023-05-21T07:00:27;99928.84;;;17.11;75.78
7200;BME280;3641;49.082;8.200;2023-05-21T07:02:54;99927.66;;;17.18;76.09
7200;BME280;3641;49.082;8.200;2023-05-21T07:05:22;99933.53;;;17.22;75.30
7200;BME280;3641;49.082;8.200;2023-05-21T07:07:48;99928.72;;;17.29;74.47
7200;BME280;3641;49.082;8.200;2023-05-21T07:10:15;99930.63;;;17.29;76.15
7200;BME280;3641;49.082;8.200;2023-05-21T07:12:41;99927.88;;;17.29;76.34
7200;BME280;3641;49.082;8.200;2023-05-21T07:15:08;99922.47;;;17.46;73.87
7200;BME280;3641;49.082;8.200;2023-05-21T07:17:35;99929.41;;;17.48;75.40
7200;BME280;3641;49.082;8.200;2023-05-21T07:20:02;99925.13;;;17.52;75.31
7200;BME280;3641;49.082;8.200;2023-05-21T07:22:31;99926.06;;;17.46;75.91
7200;BME280;3641;49.082;8.200;2023-05-21T07:24:58;99928.47;;;17.54;75.55
7200;BME280;3641;49.082;8.200;2023-05-21T07:27:24;99920.19;;;17.54;74.79
7200;BME280;3641;49.082;8.200;2023-05-21T07:29:51;99919.91;;;17.68;75.69
7200;BME280;3641;49.082;8.200;2023-05-21T07:32:17;99919.19;;;17.72;74.12
7200;BME280;3641;49.082;8.200;2023-05-21T07:34:43;99914.75;;;17.71;74.75
7200;BME280;3641;49.082;8.200;2023-05-21T07:37:11;99916.31;;;17.79;74.02
7200;BME280;3641;49.082;8.200;2023-05-21T07:39:41;99921.25;;;17.89;73.43
7200;BME280;3641;49.082;8.200;2023-05-21T07:42:07;99916.53;;;17.89;73.25
7200;BME280;3641;49.082;8.200;2023-05-21T07:44:34;99921.81;;;17.91;73.26
7200;BME280;3641;49.082;8.200;2023-05-21T07:47:00;99921.09;;;17.95;73.91
7200;BME280;3641;49.082;8.200;2023-05-21T07:49:27;99917.59;;;18.00;73.16
7200;BME280;3641;49.082;8.200;2023-05-21T07:51:53;99914.09;;;18.05;73.39
7200;BME280;3641;49.082;8.200;2023-05-21T07:54:20;99913.72;;;18.13;72.43
7200;BME280;3641;49.082;8.200;2023-05-21T07:56:48;99913.72;;;18.13;70.96
7200;BME280;3641;49.082;8.200;2023-05-21T07:59:15;99912.72;;;18.19;71.25
7200;BME280;3641;49.082;8.200;2023-05-21T08:01:42;99913.91;;;18.23;71.47
7200;BME280;3641;49.082;8.200;2023-05-21T08:04:08;99924.13;;;18.23;72.17
7200;BME280;3641;49.082;8.200;2023-05-21T08:06:35;99916.16;;;18.26;71.84
7200;BME280;3641;49.082;8.200;2023-05-21T08:09:04;99910.16;;;18.29;71.96
7200;BME280;3641;49.082;8.200;2023-05-21T08:11:30;99914.44;;;18.37;71.83
7200;BME280;3641;49.082;8.200;2023-05-21T08:13:58;99928.25;;;18.37;71.40
7200;BME280;3641;49.082;8.200;2023-05-21T08:16:25;99916.47;;;18.42;71.26
7200;BME280;3641;49.082;8.200;2023-05-21T08:18:51;99910.94;;;18.42;70.26
7200;BME280;3641;49.082;8.200;2023-05-21T08:21:18;99910.28;;;18.51;70.43
7200;BME280;3641;49.082;8.200;2023-05-21T08:23:44;99907.75;;;18.50;70.77
7200;BME280;3641;49.082;8.200;2023-05-21T08:26:11;99911.06;;;18.64;70.42
7200;BME280;3641;49.082;8.200;2023-05-21T08:28:40;99907.44;;;18.63;70.59
7200;BME280;3641;49.082;8.200;2023-05-21T08:31:08;99910.19;;;18.63;70.57
7200;BME280;3641;49.082;8.200;2023-05-21T08:33:35;99899.59;;;18.72;69.23
7200;BME280;3641;49.082;8.200;2023-05-21T08:36:02;99905.66;;;18.86;69.92
7200;BME280;3641;49.082;8.200;2023-05-21T08:38:29;99897.63;;;18.84;70.16
7200;BME280;3641;49.082;8.200;2023-05-21T08:40:57;99898.84;;;18.94;69.96
7200;BME280;3641;49.082;8.200;2023-05-21T08:43:26;99900.03;;;18.98;69.75
7200;BME280;3641;49.082;8.200;2023-05-21T08:45:54;99903.47;;;19.05;68.73
7200;BME280;3641;49.082;8.200;2023-05-21T08:48:23;99904.47;;;19.16;68.12
7200;BME280;3641;49.082;8.200;2023-05-21T08:50:50;99895.91;;;19.17;69.04
7200;BME280;3641;49.082;8.200;2023-05-21T08:53:17;99903.13;;;19.18;68.40
7200;BME280;3641;49.082;8.200;2023-05-21T08:55:43;99903.25;;;19.29;67.79
7200;BME280;3641;49.082;8.200;2023-05-21T08:58:11;99896.72;;;19.35;66.98
7200;BME280;3641;49.082;8.200;2023-05-21T09:00:38;99896.44;;;19.53;65.71
7200;BME280;3641;49.082;8.200;2023-05-21T09:03:05;99898.25;;;19.65;65.30
7200;BME280;3641;49.082;8.200;2023-05-21T09:05:37;99906.13;;;19.56;66.38
7200;BME280;3641;49.082;8.200;2023-05-21T09:08:05;99903.97;;;19.58;65.92
7200;BME280;3641;49.082;8.200;2023-05-21T09:10:35;99902.88;;;19.59;67.00
7200;BME280;3641;49.082;8.200;2023-05-21T09:13:02;99901.06;;;19.70;66.72
7200;BME280;3641;49.082;8.200;2023-05-21T09:15:29;99904.53;;;19.77;66.58
7200;BME280;3641;49.082;8.200;2023-05-21T09:17:55;99897.31;;;19.76;67.33
7200;BME280;3641;49.082;8.200;2023-05-21T09:20:23;99908.13;;;19.77;66.49
7200;BME280;3641;49.082;8.200;2023-05-21T09:22:52;99907.31;;;19.77;66.58
7200;BME280;3641;49.082;8.200;2023-05-21T09:25:21;99900.09;;;19.98;64.94
7200;BME280;3641;49.082;8.200;2023-05-21T09:27:48;99906.44;;;20.21;62.80
7200;BME280;3641;49.082;8.200;2023-05-21T09:30:16;99906.13;;;20.17;63.27
7200;BME280;3641;49.082;8.200;2023-05-21T09:32:43;99902.75;;;20.15;65.05
7200;BME280;3641;49.082;8.200;2023-05-21T09:35:12;99906.16;;;20.22;63.90
7200;BME280;3641;49.082;8.200;2023-05-21T09:37:39;99905.34;;;20.22;64.69
7200;BME280;3641;49.082;8.200;2023-05-21T09:40:16;99898.94;;;20.21;65.17
7200;BME280;3641;49.082;8.200;2023-05-21T09:42:45;99897.84;;;20.22;63.84
7200;BME280;3641;49.082;8.200;2023-05-21T09:45:16;99909.00;;;20.55;60.79
7200;BME280;3641;49.082;8.200;2023-05-21T09:47:44;99903.97;;;20.51;61.15
7200;BME280;3641;49.082;8.200;2023-05-21T09:50:11;99903.72;;;20.80;60.80
7200;BME280;3641;49.082;8.200;2023-05-21T09:52:38;99898.88;;;20.65;62.33
7200;BME280;3641;49.082;8.200;2023-05-21T09:55:05;99909.63;;;20.62;62.83
7200;BME280;3641;49.082;8.200;2023-05-21T09:57:39;99902.13;;;20.62;61.44
7200;BME280;3641;49.082;8.200;2023-05-21T10:00:07;99906.41;;;20.70;62.36
7200;BME280;3641;49.082;8.200;2023-05-21T10:02:36;99906.19;;;20.77;62.84
7200;BME280;3641;49.082;8.200;2023-05-21T10:05:07;99902.66;;;20.59;60.90
7200;BME280;3641;49.082;8.200;2023-05-21T10:07:36;99906.72;;;20.74;60.46
7200;BME280;3641;49.082;8.200;2023-05-21T10:10:03;99906.41;;;20.70;61.55
7200;BME280;3641;49.082;8.200;2023-05-21T10:12:33;99905.31;;;20.71;62.81
7200;BME280;3641;49.082;8.200;2023-05-21T10:15:02;99904.72;;;20.69;63.33
7200;BME280;3641;49.082;8.200;2023-05-21T10:17:29;99898.66;;;20.72;64.64
7200;BME280;3641;49.082;8.200;2023-05-21T10:19:58;99893.50;;;20.86;61.30
7200;BME280;3641;49.082;8.200;2023-05-21T10:22:25;99904.84;;;20.79;61.50
7200;BME280;3641;49.082;8.200;2023-05-21T10:24:51;99895.91;;;20.77;63.90
7200;BME280;3641;49.082;8.200;2023-05-21T10:27:18;99896.56;;;20.90;63.10
7200;BME280;3641;49.082;8.200;2023-05-21T10:29:47;99888.56;;;20.93;61.32
7200;BME280;3641;49.082;8.200;2023-05-21T10:32:15;99886.09;;;20.97;60.84
7200;BME280;3641;49.082;8.200;2023-05-21T10:34:42;99890.19;;;20.89;61.57
7200;BME280;3641;49.082;8.200;2023-05-21T10:37:11;99889.94;;;20.91;61.74
7200;BME280;3641;49.082;8.200;2023-05-21T10:39:38;99891.06;;;20.95;63.80
7200;BME280;3641;49.082;8.200;2023-05-21T10:42:11;99892.25;;;21.04;59.87
7200;BME280;3641;49.082;8.200;2023-05-21T10:44:53;99895.88;;;21.04;61.71
7200;BME280;3641;49.082;8.200;2023-05-21T10:47:58;99901.19;;;21.11;58.82
7200;BME280;3641;49.082;8.200;2023-05-21T10:50:50;99887.56;;;21.04;62.93
7200;BME280;3641;49.082;8.200;2023-05-21T10:53:28;99889.78;;;21.08;61.45
7200;BME280;3641;49.082;8.200;2023-05-21T10:56:05;99886.69;;;21.04;59.32
7200;BME280;3641;49.082;8.200;2023-05-21T10:58:54;99886.44;;;21.05;59.96
7200;BME280;3641;49.082;8.200;2023-05-21T11:01:27;99890.13;;;21.16;58.84
7200;BME280;3641;49.082;8.200;2023-05-21T11:03:54;99892.38;;;21.19;59.65
7200;BME280;3641;49.082;8.200;2023-05-21T11:06:21;99896.22;;;21.18;61.90
7200;BME280;3641;49.082;8.200;2023-05-21T11:08:49;99892.16;;;21.31;60.37
7200;BME280;3641;49.082;8.200;2023-05-21T11:11:38;99894.16;;;21.41;59.04
7200;BME280;3641;49.082;8.200;2023-05-21T11:14:29;99891.75;;;21.50;59.11
7200;BME280;3641;49.082;8.200;2023-05-21T11:16:58;99889.75;;;21.45;60.44
7200;BME280;3641;49.082;8.200;2023-05-21T11:19:33;99883.44;;;21.55;60.37
7200;BME280;3641;49.082;8.200;2023-05-21T11:22:05;99886.59;;;21.74;56.86
7200;BME280;3641;49.082;8.200;2023-05-21T11:24:36;99883.53;;;21.70;59.41
7200;BME280;3641;49.082;8.200;2023-05-21T11:27:03;99879.97;;;21.90;56.80
7200;BME280;3641;49.082;8.200;2023-05-21T11:29:35;99880.28;;;21.94;58.94
7200;BME280;3641;49.082;8.200;2023-05-21T11:32:06;99873.31;;;21.81;59.30
7200;BME280;3641;49.082;8.200;2023-05-21T11:34:42;99881.19;;;22.10;56.24
7200;BME280;3641;49.082;8.200;2023-05-21T11:37:29;99880.03;;;22.11;57.44
7200;BME280;3641;49.082;8.200;2023-05-21T11:40:00;99876.75;;;22.24;56.58
7200;BME280;3641;49.082;8.200;2023-05-21T11:42:41;99878.34;;;22.00;60.73
7200;BME280;3641;49.082;8.200;2023-05-21T11:45:09;99877.88;;;22.23;57.59
7200;BME280;3641;49.082;8.200;2023-05-21T11:47:39;99880.63;;;22.13;55.76
7200;BME280;3641;49.082;8.200;2023-05-21T11:50:11;99874.75;;;22.09;55.90
7200;BME280;3641;49.082;8.200;2023-05-21T11:52:39;99878.69;;;22.19;56.39
7200;BME280;3641;49.082;8.200;2023-05-21T11:55:06;99872.56;;;22.11;55.48
7200;BME280;3641;49.082;8.200;2023-05-21T11:57:33;99872.56;;;22.11;57.08
7200;BME280;3641;49.082;8.200;2023-05-21T12:00:00;99872.56;;;22.17;58.02
7200;BME280;3641;49.082;8.200;2023-05-21T12:02:36;99875.34;;;22.22;56.57
7200;BME280;3641;49.082;8.200;2023-05-21T12:05:04;99871.75;;;22.26;56.38
7200;BME280;3641;49.082;8.200;2023-05-21T12:07:30;99870.69;;;22.33;55.19
7200;BME280;3641;49.082;8.200;2023-05-21T12:09:57;99873.47;;;22.38;55.33
7200;BME280;3641;49.082;8.200;2023-05-21T12:12:25;99873.47;;;22.43;55.37
7200;BME280;3641;49.082;8.200;2023-05-21T12:14:53;99868.50;;;22.55;55.58
7200;BME280;3641;49.082;8.200;2023-05-21T12:17:21;99868.50;;;22.55;55.74
7200;BME280;3641;49.082;8.200;2023-05-21T12:19:50;99865.69;;;22.65;56.66
7200;BME280;3641;49.082;8.200;2023-05-21T12:22:17;99871.81;;;22.83;56.94
7200;BME280;3641;49.082;8.200;2023-05-21T12:24:44;99864.59;;;22.92;56.70
7200;BME280;3641;49.082;8.200;2023-05-21T12:27:13;99856.81;;;22.79;57.01
7200;BME280;3641;49.082;8.200;2023-05-21T12:29:41;99865.41;;;22.93;56.66
7200;BME280;3641;49.082;8.200;2023-05-21T12:32:10;99864.00;;;23.36;55.60
7200;BME280;3641;49.082;8.200;2023-05-21T12:34:40;99869.28;;;23.43;53.01
7200;BME280;3641;49.082;8.200;2023-05-21T12:37:10;99862.56;;;23.49;53.50
7200;BME280;3641;49.082;8.200;2023-05-21T12:39:37;99857.00;;;23.39;54.30
7200;BME280;3641;49.082;8.200;2023-05-21T12:42:04;99857.22;;;23.68;52.38
7200;BME280;3641;49.082;8.200;2023-05-21T12:44:31;99856.94;;;23.65;51.94
7200;BME280;3641;49.082;8.200;2023-05-21T12:46:57;99855.88;;;23.50;55.33
7200;BME280;3641;49.082;8.200;2023-05-21T12:49:32;99858.41;;;23.52;55.06
7200;BME280;3641;49.082;8.200;2023-05-21T12:52:01;99847.75;;;23.59;57.34
7200;BME280;3641;49.082;8.200;2023-05-21T12:54:31;99852.72;;;23.72;55.66
7200;BME280;3641;49.082;8.200;2023-05-21T12:57:05;99856.59;;;23.87;53.94
7200;BME280;3641;49.082;8.200;2023-05-21T12:59:42;99856.69;;;24.21;50.07
7200;BME280;3641;49.082;8.200;2023-05-21T13:02:13;99857.91;;;24.05;50.89
7200;BME280;3641;49.082;8.200;2023-05-21T13:04:39;99849.03;;;23.92;53.15
7200;BME280;3641;49.082;8.200;2023-05-21T13:07:06;99858.03;;;24.29;49.50
7200;BME280;3641;49.082;8.200;2023-05-21T13:09:34;99847.25;;;24.12;50.69
7200;BME280;3641;49.082;8.200;2023-05-21T13:12:00;99854.75;;;24.17;50.60
7200;BME280;3641;49.082;8.200;2023-05-21T13:14:27;99858.81;;;23.90;52.59
7200;BME280;3641;49.082;8.200;2023-05-21T13:16:53;99849.06;;;23.87;54.49
7200;BME280;3641;49.082;8.200;2023-05-21T13:19:19;99850.47;;;23.80;55.14
7200;BME280;3641;49.082;8.200;2023-05-21T13:21:46;99845.78;;;23.70;53.10
7200;BME280;3641;49.082;8.200;2023-05-21T13:24:12;99851.09;;;23.66;54.07
7200;BME280;3641;49.082;8.200;2023-05-21T13:26:40;99847.16;;;23.67;56.50